Decoded Metar for KRKS (ROCK SPRINGS in WY, USA) (IATA:RKS) | Meteo·Mobile Aviation Weather
aviador You're here:

KRKS Decoded Metar

ROCK SPRINGS in WY, USA
Report Time2019-05-19 22:54:00
UTC Time2019-05-19 23:04:33
Flight Rules vfr VFR
Wind090° at 11 kt
W.Decomp.*RWY 09: 10.7 kt HW 2.5 kt LCW
RWY 03: 7.5 kt HW 8.0 kt RCW
Visibility9999 m
Phenomena:N/A
Clouds:Broken 070 Hf
Overcast 080 Hf
Expected CloudBase > 2,000 ft AGL from Temp-Dew spread
Ceiling7,000 ft
Temp07°C (ISA +5)
Dew Point02°C (71% RH)
AAT1.4°C
QNH1007 hPa
Density Alt7,710 ft
Elevation6,759 ft
Report Wrong Elevation
Raw Report
KRKS 192254Z AUTO 09011KT 10SM BKN070 OVC080 07/02 A2973 RMK AO2
WSHFT 2237 SLP051 T00720017 TSNO=

Extra information for KRKS:More info

Metar Taf Metar & Taf Last 4 Metars F.Rules Stats Wind Profile Meteogram Temp Stats Airport Information Weather charts Add Link Nearby VenuesMetar ALERT Operation Metar Decoded Social comments

AIRNAV info for KRKS